PDA1204 LGIR-UKBB
Flight info
| Callsign | PDA1204 |
|---|---|
| Flight time | 2h 9m |
| Altitude | 37000 |
| Route | NAVUS DCT REDRA DCT IMR UG80 DUGLA Y371 MARMA DCT FENER DCT MAKOL N617 BINBI DCT AMLAV DCT OSDOR/K0882F390 N617 ODESE DCT GOBLI DCT RUBOS DCT SULUM |
| Aircraft | B772/H-SDE2E3FGHIJ5LORVWXY/LB1D1 |
Departure
| Time | 2026-04-27 09:20 |
|---|---|
| Airport | Heraklion International Nikos Kazantzakis Airport (LGIR) |
Arrival
| Time | 2026-04-27 11:29 |
|---|---|
| Airport | Boryspil International Airport (UKBB) |
| Time | Latitude | Longitude | Altitude | Speed | Heading |
|---|---|---|---|---|---|
| 2026-04-27 08:57 | 35.33752 | 25.18813 | 95 ft | 0 kts | 185° |
| 2026-04-27 09:11 | 35.33770 | 25.18814 | 94 ft | 4 kts | 180° |
| 2026-04-27 09:11 | 35.33796 | 25.18812 | 93 ft | 4 kts | 162° |
| 2026-04-27 09:12 | 35.33816 | 25.18800 | 93 ft | 4 kts | 128° |
| 2026-04-27 09:12 | 35.33823 | 25.18784 | 92 ft | 0 kts | 95° |
| 2026-04-27 09:16 | 35.33819 | 25.18846 | 93 ft | 0 kts | 95° |
| 2026-04-27 09:17 | 35.33817 | 25.18867 | 94 ft | 12 kts | 95° |
| 2026-04-27 09:18 | 35.33843 | 25.18974 | 97 ft | 14 kts | 59° |
| 2026-04-27 09:18 | 35.33904 | 25.19013 | 95 ft | 6 kts | 338° |
| 2026-04-27 09:18 | 35.33912 | 25.18944 | 95 ft | 8 kts | 272° |
| 2026-04-27 09:18 | 35.33912 | 25.18939 | 95 ft | 0 kts | 272° |
| 2026-04-27 09:19 | 35.33912 | 25.18935 | 95 ft | 6 kts | 272° |
| 2026-04-27 09:19 | 35.33935 | 25.18602 | 94 ft | 78 kts | 275° |
| 2026-04-27 09:19 | 35.34003 | 25.17636 | 97 ft | 148 kts | 274° |
| 2026-04-27 09:19 | 35.34105 | 25.16237 | 543 ft | 169 kts | 278° |
| 2026-04-27 09:20 | 35.34345 | 25.14807 | 1488 ft | 175 kts | 306° |
| 2026-04-27 09:20 | 35.35273 | 25.13947 | 2221 ft | 176 kts | 335° |
| 2026-04-27 09:20 | 35.36483 | 25.13278 | 2425 ft | 200 kts | 336° |
| 2026-04-27 09:20 | 35.37763 | 25.12481 | 2562 ft | 220 kts | 323° |
| 2026-04-27 09:21 | 35.38864 | 25.11056 | 2782 ft | 242 kts | 309° |
| 2026-04-27 09:21 | 35.39913 | 25.09347 | 3230 ft | 254 kts | 307° |
| 2026-04-27 09:21 | 35.40958 | 25.07590 | 3958 ft | 255 kts | 306° |
| 2026-04-27 09:21 | 35.42078 | 25.05898 | 4576 ft | 255 kts | 321° |
| 2026-04-27 09:22 | 35.43721 | 25.05076 | 5136 ft | 263 kts | 356° |
| 2026-04-27 09:22 | 35.45525 | 25.05505 | 5717 ft | 269 kts | 21° |
| 2026-04-27 09:22 | 35.47252 | 25.06448 | 6260 ft | 276 kts | 22° |
| 2026-04-27 09:22 | 35.49010 | 25.07426 | 6930 ft | 278 kts | 22° |
| 2026-04-27 09:23 | 35.50769 | 25.08415 | 7648 ft | 279 kts | 23° |
| 2026-04-27 09:23 | 35.52540 | 25.09417 | 8324 ft | 281 kts | 23° |
| 2026-04-27 09:23 | 35.54332 | 25.10431 | 8985 ft | 286 kts | 23° |
| 2026-04-27 09:23 | 35.56149 | 25.11460 | 9648 ft | 289 kts | 23° |
| 2026-04-27 09:24 | 35.57962 | 25.12485 | 10273 ft | 293 kts | 24° |
| 2026-04-27 09:24 | 35.59868 | 25.13561 | 10575 ft | 313 kts | 24° |
| 2026-04-27 09:24 | 35.61926 | 25.14722 | 10767 ft | 338 kts | 24° |
| 2026-04-27 09:24 | 35.64141 | 25.15971 | 11006 ft | 361 kts | 24° |
| 2026-04-27 09:25 | 35.66454 | 25.17277 | 11684 ft | 370 kts | 24° |
| 2026-04-27 09:25 | 35.68817 | 25.18612 | 12631 ft | 374 kts | 24° |
| 2026-04-27 09:25 | 35.71193 | 25.19956 | 13625 ft | 378 kts | 24° |
| 2026-04-27 09:25 | 35.73602 | 25.21318 | 14498 ft | 383 kts | 24° |
| 2026-04-27 09:26 | 35.76043 | 25.22698 | 15317 ft | 388 kts | 24° |
| 2026-04-27 09:26 | 35.78507 | 25.24093 | 16144 ft | 393 kts | 23° |
| 2026-04-27 09:26 | 35.81006 | 25.25507 | 16953 ft | 397 kts | 23° |
| 2026-04-27 09:26 | 35.83540 | 25.26942 | 17761 ft | 402 kts | 23° |
| 2026-04-27 09:27 | 35.86096 | 25.28390 | 18534 ft | 406 kts | 23° |
| 2026-04-27 09:27 | 35.88677 | 25.29854 | 19213 ft | 410 kts | 23° |
| 2026-04-27 09:27 | 35.91253 | 25.31316 | 19861 ft | 415 kts | 23° |
| 2026-04-27 09:27 | 35.93890 | 25.32814 | 20511 ft | 419 kts | 23° |
| 2026-04-27 09:28 | 35.96558 | 25.34330 | 21151 ft | 424 kts | 22° |
| 2026-04-27 09:28 | 35.99243 | 25.35858 | 21789 ft | 428 kts | 22° |
| 2026-04-27 09:28 | 36.01963 | 25.37406 | 22430 ft | 432 kts | 22° |
| 2026-04-27 09:28 | 36.04718 | 25.38976 | 23077 ft | 436 kts | 22° |
| 2026-04-27 09:29 | 36.07491 | 25.40556 | 23716 ft | 441 kts | 22° |
| 2026-04-27 09:29 | 36.10284 | 25.42150 | 24223 ft | 445 kts | 22° |
| 2026-04-27 09:29 | 36.13110 | 25.43764 | 24749 ft | 448 kts | 22° |
| 2026-04-27 09:29 | 36.15955 | 25.45390 | 25251 ft | 452 kts | 22° |
| 2026-04-27 09:30 | 36.18788 | 25.47011 | 25749 ft | 456 kts | 22° |
| 2026-04-27 09:30 | 36.21676 | 25.48664 | 26230 ft | 459 kts | 22° |
| 2026-04-27 09:30 | 36.24590 | 25.50334 | 26695 ft | 463 kts | 22° |
| 2026-04-27 09:30 | 36.27523 | 25.52015 | 27144 ft | 466 kts | 22° |
| 2026-04-27 09:31 | 36.30482 | 25.53713 | 27580 ft | 470 kts | 22° |
| 2026-04-27 09:31 | 36.33458 | 25.55423 | 27985 ft | 473 kts | 22° |
| 2026-04-27 09:31 | 36.36453 | 25.57145 | 28399 ft | 476 kts | 22° |
| 2026-04-27 09:31 | 36.39473 | 25.58883 | 28787 ft | 479 kts | 22° |
| 2026-04-27 09:32 | 36.42513 | 25.60633 | 29155 ft | 482 kts | 22° |
| 2026-04-27 09:32 | 36.45568 | 25.62394 | 29496 ft | 485 kts | 22° |
| 2026-04-27 09:32 | 36.48640 | 25.64167 | 29818 ft | 488 kts | 22° |
| 2026-04-27 09:32 | 36.51726 | 25.65949 | 30135 ft | 490 kts | 22° |
| 2026-04-27 09:33 | 36.54824 | 25.67739 | 30415 ft | 492 kts | 22° |
| 2026-04-27 09:33 | 36.57932 | 25.69537 | 30697 ft | 493 kts | 22° |
| 2026-04-27 09:33 | 36.61043 | 25.71339 | 31002 ft | 493 kts | 22° |
| 2026-04-27 09:33 | 36.64161 | 25.73146 | 31354 ft | 492 kts | 22° |
| 2026-04-27 09:34 | 36.67262 | 25.74945 | 31715 ft | 491 kts | 22° |
| 2026-04-27 09:34 | 36.69315 | 25.76137 | 31971 ft | 490 kts | 22° |
| 2026-04-27 09:34 | 36.72401 | 25.77930 | 32323 ft | 489 kts | 22° |
| 2026-04-27 09:34 | 36.75480 | 25.79721 | 32701 ft | 488 kts | 22° |
| 2026-04-27 09:35 | 36.78555 | 25.81510 | 33081 ft | 487 kts | 22° |
| 2026-04-27 09:35 | 36.81626 | 25.83298 | 33459 ft | 486 kts | 22° |
| 2026-04-27 09:35 | 36.84697 | 25.85088 | 33819 ft | 485 kts | 22° |
| 2026-04-27 09:35 | 36.88737 | 25.87446 | 34276 ft | 484 kts | 22° |
| 2026-04-27 09:36 | 36.90805 | 25.88653 | 34473 ft | 484 kts | 22° |
| 2026-04-27 09:36 | 36.93852 | 25.90434 | 34744 ft | 484 kts | 22° |
| 2026-04-27 09:36 | 36.96899 | 25.92216 | 35011 ft | 484 kts | 22° |
| 2026-04-27 09:36 | 36.99950 | 25.94002 | 35295 ft | 483 kts | 22° |
| 2026-04-27 09:37 | 37.02952 | 25.95761 | 35564 ft | 483 kts | 22° |
| 2026-04-27 09:37 | 37.05984 | 25.97539 | 35839 ft | 482 kts | 22° |
| 2026-04-27 09:37 | 37.09035 | 25.99330 | 36096 ft | 482 kts | 22° |
| 2026-04-27 09:37 | 37.12073 | 26.01116 | 36354 ft | 482 kts | 22° |
| 2026-04-27 09:38 | 37.15104 | 26.02898 | 36619 ft | 482 kts | 22° |
| 2026-04-27 09:38 | 37.18137 | 26.04684 | 36865 ft | 481 kts | 22° |
| 2026-04-27 09:38 | 37.21170 | 26.06470 | 37004 ft | 483 kts | 22° |
| 2026-04-27 09:39 | 37.27265 | 26.10065 | 37073 ft | 483 kts | 22° |
| 2026-04-27 09:39 | 37.33330 | 26.13650 | 37082 ft | 482 kts | 22° |
| 2026-04-27 09:40 | 37.39394 | 26.17241 | 37081 ft | 481 kts | 22° |
| 2026-04-27 09:40 | 37.45448 | 26.20831 | 37079 ft | 480 kts | 22° |
| 2026-04-27 09:41 | 37.51493 | 26.24423 | 37078 ft | 480 kts | 22° |
| 2026-04-27 09:41 | 37.57537 | 26.28021 | 37077 ft | 480 kts | 22° |
| 2026-04-27 09:42 | 37.63564 | 26.31615 | 37079 ft | 480 kts | 23° |
| 2026-04-27 09:42 | 37.69620 | 26.35233 | 37089 ft | 480 kts | 22° |
| 2026-04-27 09:43 | 37.75641 | 26.38786 | 37089 ft | 481 kts | 22° |
| 2026-04-27 09:43 | 37.81705 | 26.42344 | 37081 ft | 481 kts | 22° |
| 2026-04-27 09:44 | 37.87764 | 26.45910 | 37077 ft | 481 kts | 22° |
| 2026-04-27 09:44 | 37.93836 | 26.49498 | 37083 ft | 481 kts | 22° |
| 2026-04-27 09:45 | 37.99901 | 26.53092 | 37079 ft | 481 kts | 22° |
| 2026-04-27 09:45 | 38.05962 | 26.56689 | 37081 ft | 481 kts | 22° |
| 2026-04-27 09:46 | 38.12027 | 26.60294 | 37080 ft | 481 kts | 22° |
| 2026-04-27 09:46 | 38.18084 | 26.63902 | 37083 ft | 480 kts | 22° |
| 2026-04-27 09:47 | 38.24113 | 26.67500 | 37080 ft | 480 kts | 22° |
| 2026-04-27 09:47 | 38.30167 | 26.71120 | 37083 ft | 480 kts | 22° |
| 2026-04-27 09:48 | 38.36215 | 26.74741 | 37087 ft | 480 kts | 22° |
| 2026-04-27 09:48 | 38.42269 | 26.78373 | 37083 ft | 480 kts | 22° |
| 2026-04-27 09:49 | 38.48270 | 26.81980 | 37090 ft | 479 kts | 22° |
| 2026-04-27 09:49 | 38.54302 | 26.85613 | 37098 ft | 479 kts | 23° |
| 2026-04-27 09:50 | 38.60332 | 26.89252 | 37100 ft | 479 kts | 23° |
| 2026-04-27 09:50 | 38.66367 | 26.92900 | 37100 ft | 479 kts | 23° |
| 2026-04-27 09:51 | 38.72402 | 26.96555 | 37105 ft | 479 kts | 23° |
| 2026-04-27 09:51 | 38.78425 | 27.00210 | 37114 ft | 480 kts | 23° |
| 2026-04-27 09:52 | 38.84427 | 27.03860 | 37116 ft | 479 kts | 23° |
| 2026-04-27 09:52 | 38.90458 | 27.07533 | 37119 ft | 479 kts | 22° |
| 2026-04-27 09:53 | 38.96487 | 27.11189 | 37128 ft | 479 kts | 20° |
| 2026-04-27 09:53 | 39.02796 | 27.13826 | 37136 ft | 475 kts | 10° |
| 2026-04-27 09:54 | 39.09296 | 27.15124 | 37141 ft | 473 kts | 5° |
| 2026-04-27 09:54 | 39.15832 | 27.16222 | 37157 ft | 472 kts | 5° |
| 2026-04-27 09:55 | 39.22309 | 27.17360 | 37154 ft | 473 kts | 5° |
| 2026-04-27 09:55 | 39.32078 | 27.19139 | 37168 ft | 472 kts | 5° |
| 2026-04-27 09:56 | 39.38584 | 27.20329 | 37163 ft | 472 kts | 5° |
| 2026-04-27 09:56 | 39.45089 | 27.21518 | 37164 ft | 472 kts | 5° |
| 2026-04-27 09:57 | 39.51554 | 27.22984 | 37169 ft | 474 kts | 12° |
| 2026-04-27 09:57 | 39.57868 | 27.25547 | 37167 ft | 475 kts | 15° |
| 2026-04-27 09:58 | 39.64159 | 27.28193 | 37176 ft | 475 kts | 15° |
| 2026-04-27 09:58 | 39.70429 | 27.30758 | 37203 ft | 475 kts | 14° |
| 2026-04-27 09:59 | 39.76740 | 27.33343 | 37206 ft | 476 kts | 15° |
| 2026-04-27 09:59 | 39.83053 | 27.35969 | 37217 ft | 476 kts | 15° |
| 2026-04-27 10:00 | 39.89365 | 27.38594 | 37218 ft | 476 kts | 15° |
| 2026-04-27 10:00 | 39.95675 | 27.41212 | 37230 ft | 476 kts | 14° |
| 2026-04-27 10:01 | 40.01997 | 27.43808 | 37233 ft | 476 kts | 14° |
| 2026-04-27 10:01 | 40.08317 | 27.46409 | 37232 ft | 476 kts | 14° |
| 2026-04-27 10:02 | 40.14632 | 27.49017 | 37242 ft | 476 kts | 14° |
| 2026-04-27 10:02 | 40.20956 | 27.51636 | 37248 ft | 477 kts | 14° |
| 2026-04-27 10:03 | 40.27294 | 27.54272 | 37258 ft | 478 kts | 14° |
| 2026-04-27 10:03 | 40.33640 | 27.56919 | 37248 ft | 479 kts | 14° |
| 2026-04-27 10:04 | 40.39984 | 27.59570 | 37254 ft | 478 kts | 14° |
| 2026-04-27 10:04 | 40.46288 | 27.62209 | 37257 ft | 478 kts | 14° |
| 2026-04-27 10:05 | 40.52534 | 27.65304 | 37267 ft | 482 kts | 23° |
| 2026-04-27 10:05 | 40.58290 | 27.69862 | 37289 ft | 484 kts | 32° |
| 2026-04-27 10:06 | 40.63787 | 27.75015 | 37269 ft | 485 kts | 33° |
| 2026-04-27 10:06 | 40.69276 | 27.80187 | 37270 ft | 485 kts | 32° |
| 2026-04-27 10:07 | 40.74780 | 27.85321 | 37269 ft | 484 kts | 32° |
| 2026-04-27 10:07 | 40.80292 | 27.90442 | 37268 ft | 484 kts | 32° |
| 2026-04-27 10:08 | 40.85761 | 27.95531 | 37274 ft | 484 kts | 32° |
| 2026-04-27 10:08 | 40.91257 | 28.00658 | 37271 ft | 484 kts | 32° |
| 2026-04-27 10:09 | 40.96755 | 28.05800 | 37266 ft | 483 kts | 32° |
| 2026-04-27 10:09 | 41.02249 | 28.10949 | 37258 ft | 483 kts | 32° |
| 2026-04-27 10:10 | 41.07733 | 28.16100 | 37262 ft | 483 kts | 32° |
| 2026-04-27 10:10 | 41.13213 | 28.21257 | 37286 ft | 483 kts | 32° |
| 2026-04-27 10:11 | 41.18696 | 28.26429 | 37275 ft | 483 kts | 32° |
| 2026-04-27 10:11 | 41.24146 | 28.31580 | 37293 ft | 484 kts | 32° |
| 2026-04-27 10:12 | 41.29628 | 28.36761 | 37305 ft | 483 kts | 32° |
| 2026-04-27 10:12 | 41.35215 | 28.41708 | 37306 ft | 483 kts | 30° |
| 2026-04-27 10:13 | 41.40862 | 28.46564 | 37323 ft | 483 kts | 30° |
| 2026-04-27 10:13 | 41.43686 | 28.49008 | 37482 ft | 485 kts | 30° |
| 2026-04-27 10:13 | 41.46510 | 28.51469 | 37783 ft | 483 kts | 30° |
| 2026-04-27 10:14 | 41.49313 | 28.53925 | 38127 ft | 481 kts | 30° |
| 2026-04-27 10:14 | 41.52098 | 28.56374 | 38431 ft | 479 kts | 30° |
| 2026-04-27 10:14 | 41.54883 | 28.58829 | 38705 ft | 479 kts | 30° |
| 2026-04-27 10:14 | 41.57667 | 28.61285 | 38928 ft | 479 kts | 30° |
| 2026-04-27 10:15 | 41.60450 | 28.63741 | 39109 ft | 479 kts | 30° |
| 2026-04-27 10:15 | 41.63230 | 28.66197 | 39217 ft | 479 kts | 30° |
| 2026-04-27 10:15 | 41.68814 | 28.71137 | 39307 ft | 480 kts | 30° |
| 2026-04-27 10:16 | 41.74356 | 28.76050 | 39318 ft | 481 kts | 30° |
| 2026-04-27 10:16 | 41.79932 | 28.81004 | 39321 ft | 481 kts | 30° |
| 2026-04-27 10:17 | 41.85516 | 28.85976 | 39321 ft | 481 kts | 30° |
| 2026-04-27 10:17 | 41.91082 | 28.90942 | 39318 ft | 481 kts | 30° |
| 2026-04-27 10:18 | 41.96656 | 28.95926 | 39319 ft | 481 kts | 30° |
| 2026-04-27 10:18 | 42.02225 | 29.00916 | 39324 ft | 481 kts | 30° |
| 2026-04-27 10:19 | 42.07789 | 29.05913 | 39320 ft | 480 kts | 30° |
| 2026-04-27 10:19 | 42.13323 | 29.10866 | 39324 ft | 479 kts | 27° |
| 2026-04-27 10:20 | 42.19271 | 29.14730 | 39331 ft | 472 kts | 16° |
| 2026-04-27 10:20 | 42.25562 | 29.17098 | 39330 ft | 468 kts | 9° |
| 2026-04-27 10:21 | 42.30852 | 29.18689 | 39331 ft | 468 kts | 8° |
| 2026-04-27 10:21 | 42.37206 | 29.20595 | 39329 ft | 468 kts | 9° |
| 2026-04-27 10:22 | 42.43565 | 29.22556 | 39325 ft | 468 kts | 9° |
| 2026-04-27 10:22 | 42.49910 | 29.24543 | 39331 ft | 468 kts | 9° |
| 2026-04-27 10:23 | 42.56250 | 29.26538 | 39328 ft | 468 kts | 9° |
| 2026-04-27 10:23 | 42.62597 | 29.28539 | 39333 ft | 468 kts | 9° |
| 2026-04-27 10:24 | 42.68948 | 29.30544 | 39336 ft | 468 kts | 9° |
| 2026-04-27 10:24 | 42.75247 | 29.32535 | 39333 ft | 468 kts | 9° |
| 2026-04-27 10:25 | 42.81602 | 29.34549 | 39330 ft | 469 kts | 9° |
| 2026-04-27 10:25 | 42.87956 | 29.36566 | 39338 ft | 469 kts | 9° |
| 2026-04-27 10:26 | 42.94313 | 29.38589 | 39333 ft | 469 kts | 8° |
| 2026-04-27 10:26 | 43.00671 | 29.40617 | 39338 ft | 469 kts | 8° |
| 2026-04-27 10:27 | 43.07041 | 29.42652 | 39342 ft | 470 kts | 8° |
| 2026-04-27 10:27 | 43.13415 | 29.44694 | 39347 ft | 470 kts | 8° |
| 2026-04-27 10:28 | 43.19798 | 29.46742 | 39343 ft | 470 kts | 8° |
| 2026-04-27 10:28 | 43.26130 | 29.48779 | 39333 ft | 471 kts | 8° |
| 2026-04-27 10:29 | 43.32513 | 29.50836 | 39340 ft | 471 kts | 8° |
| 2026-04-27 10:29 | 43.38893 | 29.52897 | 39341 ft | 471 kts | 8° |
| 2026-04-27 10:30 | 43.45290 | 29.54968 | 39340 ft | 472 kts | 8° |
| 2026-04-27 10:30 | 43.51704 | 29.57049 | 39344 ft | 472 kts | 8° |
| 2026-04-27 10:31 | 43.58063 | 29.59117 | 39342 ft | 472 kts | 8° |
| 2026-04-27 10:31 | 43.64460 | 29.61202 | 39342 ft | 473 kts | 8° |
| 2026-04-27 10:32 | 43.70860 | 29.63291 | 39340 ft | 473 kts | 8° |
| 2026-04-27 10:32 | 43.77280 | 29.65262 | 39341 ft | 472 kts | 7° |
| 2026-04-27 10:33 | 43.83710 | 29.67095 | 39337 ft | 471 kts | 7° |
| 2026-04-27 10:33 | 43.90137 | 29.68944 | 39339 ft | 471 kts | 7° |
| 2026-04-27 10:34 | 43.96558 | 29.70820 | 39333 ft | 471 kts | 7° |
| 2026-04-27 10:34 | 44.02972 | 29.72704 | 39335 ft | 471 kts | 7° |
| 2026-04-27 10:35 | 44.09389 | 29.74592 | 39332 ft | 471 kts | 7° |
| 2026-04-27 10:35 | 44.15797 | 29.76480 | 39336 ft | 471 kts | 7° |
| 2026-04-27 10:36 | 44.22193 | 29.78558 | 39331 ft | 472 kts | 9° |
| 2026-04-27 10:36 | 44.28517 | 29.80795 | 39328 ft | 472 kts | 9° |
| 2026-04-27 10:37 | 44.34889 | 29.83040 | 39322 ft | 472 kts | 9° |
| 2026-04-27 10:37 | 44.41255 | 29.85257 | 39326 ft | 471 kts | 9° |
| 2026-04-27 10:38 | 44.47632 | 29.87470 | 39323 ft | 471 kts | 9° |
| 2026-04-27 10:38 | 44.54010 | 29.89688 | 39324 ft | 471 kts | 9° |
| 2026-04-27 10:39 | 44.60374 | 29.91908 | 39317 ft | 471 kts | 9° |
| 2026-04-27 10:39 | 44.66691 | 29.94117 | 39316 ft | 471 kts | 9° |
| 2026-04-27 10:40 | 44.73050 | 29.96346 | 39308 ft | 471 kts | 9° |
| 2026-04-27 10:40 | 44.79413 | 29.98581 | 39313 ft | 471 kts | 9° |
| 2026-04-27 10:41 | 44.85770 | 30.00820 | 39312 ft | 471 kts | 9° |
| 2026-04-27 10:41 | 44.92136 | 30.03067 | 39311 ft | 471 kts | 9° |
| 2026-04-27 10:42 | 44.98486 | 30.05394 | 39311 ft | 473 kts | 13° |
| 2026-04-27 10:42 | 45.04723 | 30.08474 | 39304 ft | 475 kts | 15° |
| 2026-04-27 10:43 | 45.10937 | 30.11695 | 39304 ft | 476 kts | 15° |
| 2026-04-27 10:43 | 45.17168 | 30.14899 | 39306 ft | 476 kts | 14° |
| 2026-04-27 10:44 | 45.23361 | 30.18055 | 39299 ft | 476 kts | 14° |
| 2026-04-27 10:44 | 45.29598 | 30.21231 | 39298 ft | 476 kts | 14° |
| 2026-04-27 10:45 | 45.35847 | 30.24421 | 39292 ft | 477 kts | 14° |
| 2026-04-27 10:45 | 45.42096 | 30.27621 | 39293 ft | 477 kts | 14° |
| 2026-04-27 10:46 | 45.48345 | 30.30829 | 39286 ft | 478 kts | 14° |
| 2026-04-27 10:46 | 45.54610 | 30.34053 | 39287 ft | 478 kts | 14° |
| 2026-04-27 10:47 | 45.60840 | 30.37267 | 39278 ft | 479 kts | 14° |
| 2026-04-27 10:47 | 45.67114 | 30.40511 | 39281 ft | 480 kts | 14° |
| 2026-04-27 10:48 | 45.73403 | 30.43771 | 39277 ft | 481 kts | 14° |
| 2026-04-27 10:48 | 45.79695 | 30.47025 | 39273 ft | 481 kts | 13° |
| 2026-04-27 10:49 | 45.86011 | 30.50193 | 39272 ft | 481 kts | 13° |
| 2026-04-27 10:49 | 45.92324 | 30.53360 | 39265 ft | 481 kts | 13° |
| 2026-04-27 10:50 | 45.98641 | 30.56549 | 39263 ft | 480 kts | 12° |
| 2026-04-27 10:50 | 46.05046 | 30.58824 | 39255 ft | 470 kts | 2° |
| 2026-04-27 10:51 | 46.11504 | 30.60182 | 39251 ft | 468 kts | 1° |
| 2026-04-27 10:51 | 46.17958 | 30.61529 | 39253 ft | 468 kts | 1° |
| 2026-04-27 10:52 | 46.24361 | 30.62933 | 39249 ft | 468 kts | 1° |
| 2026-04-27 10:52 | 46.30810 | 30.64370 | 39237 ft | 469 kts | 1° |
| 2026-04-27 10:53 | 46.40487 | 30.66526 | 39238 ft | 469 kts | 1° |
| 2026-04-27 10:54 | 46.46934 | 30.67130 | 39239 ft | 461 kts | 353° |
| 2026-04-27 10:54 | 46.53349 | 30.67049 | 39237 ft | 461 kts | 352° |
| 2026-04-27 10:55 | 46.59770 | 30.66945 | 39236 ft | 462 kts | 352° |
| 2026-04-27 10:55 | 46.66174 | 30.66886 | 39229 ft | 464 kts | 352° |
| 2026-04-27 10:56 | 46.72658 | 30.66853 | 39222 ft | 465 kts | 352° |
| 2026-04-27 10:56 | 46.79131 | 30.66825 | 39228 ft | 466 kts | 352° |
| 2026-04-27 10:57 | 46.85619 | 30.66798 | 39228 ft | 466 kts | 352° |
| 2026-04-27 10:57 | 46.92121 | 30.66768 | 39221 ft | 467 kts | 352° |
| 2026-04-27 10:58 | 46.98632 | 30.66736 | 39218 ft | 468 kts | 352° |
| 2026-04-27 10:58 | 47.05153 | 30.66704 | 39213 ft | 468 kts | 352° |
| 2026-04-27 10:59 | 47.11631 | 30.66674 | 39209 ft | 469 kts | 352° |
| 2026-04-27 10:59 | 47.18153 | 30.66644 | 39213 ft | 468 kts | 352° |
| 2026-04-27 11:00 | 47.27942 | 30.66597 | 39207 ft | 468 kts | 352° |
| 2026-04-27 11:00 | 47.34452 | 30.66566 | 39213 ft | 467 kts | 352° |
| 2026-04-27 11:01 | 47.40921 | 30.66534 | 39203 ft | 467 kts | 352° |
| 2026-04-27 11:01 | 47.47459 | 30.66502 | 39205 ft | 466 kts | 352° |
| 2026-04-27 11:02 | 47.53908 | 30.66471 | 39191 ft | 465 kts | 352° |
| 2026-04-27 11:02 | 47.60379 | 30.66440 | 39196 ft | 464 kts | 352° |
| 2026-04-27 11:03 | 47.66837 | 30.66409 | 39205 ft | 464 kts | 352° |
| 2026-04-27 11:03 | 47.73290 | 30.66377 | 39195 ft | 464 kts | 352° |
| 2026-04-27 11:04 | 47.79755 | 30.66344 | 39192 ft | 464 kts | 352° |
| 2026-04-27 11:04 | 47.86215 | 30.66311 | 39190 ft | 465 kts | 352° |
| 2026-04-27 11:05 | 47.92661 | 30.66279 | 39192 ft | 466 kts | 352° |
| 2026-04-27 11:05 | 47.99160 | 30.66247 | 39184 ft | 467 kts | 352° |
| 2026-04-27 11:06 | 48.05677 | 30.66215 | 39188 ft | 469 kts | 352° |
| 2026-04-27 11:06 | 48.12213 | 30.66220 | 39185 ft | 471 kts | 353° |
| 2026-04-27 11:07 | 48.17677 | 30.66334 | 39173 ft | 473 kts | 353° |
| 2026-04-27 11:07 | 48.25389 | 30.66526 | 39179 ft | 475 kts | 353° |
| 2026-04-27 11:08 | 48.30889 | 30.66650 | 39182 ft | 476 kts | 353° |
| 2026-04-27 11:08 | 48.38600 | 30.66811 | 39184 ft | 477 kts | 353° |
| 2026-04-27 11:09 | 48.44173 | 30.66924 | 39177 ft | 479 kts | 353° |
| 2026-04-27 11:09 | 48.50839 | 30.67061 | 39170 ft | 479 kts | 354° |
| 2026-04-27 11:10 | 48.57518 | 30.67200 | 39165 ft | 479 kts | 353° |
| 2026-04-27 11:10 | 48.64149 | 30.67339 | 39163 ft | 479 kts | 354° |
| 2026-04-27 11:11 | 48.70825 | 30.67478 | 39166 ft | 479 kts | 354° |
| 2026-04-27 11:11 | 48.77501 | 30.67617 | 39165 ft | 479 kts | 354° |
| 2026-04-27 11:12 | 48.84177 | 30.67757 | 39159 ft | 479 kts | 354° |
| 2026-04-27 11:12 | 48.90847 | 30.67898 | 39153 ft | 478 kts | 354° |
| 2026-04-27 11:13 | 48.97371 | 30.68046 | 38722 ft | 457 kts | 353° |
| 2026-04-27 11:13 | 49.00511 | 30.68125 | 37421 ft | 448 kts | 353° |
| 2026-04-27 11:13 | 49.03650 | 30.68184 | 35569 ft | 455 kts | 352° |
| 2026-04-27 11:14 | 49.06837 | 30.68236 | 33613 ft | 461 kts | 352° |
| 2026-04-27 11:14 | 49.10068 | 30.68295 | 31361 ft | 466 kts | 351° |
| 2026-04-27 11:14 | 49.13333 | 30.68363 | 29027 ft | 470 kts | 352° |
| 2026-04-27 11:14 | 49.16642 | 30.68431 | 27232 ft | 482 kts | 352° |
| 2026-04-27 11:15 | 49.19980 | 30.68506 | 26423 ft | 478 kts | 352° |
| 2026-04-27 11:15 | 49.23294 | 30.68585 | 25558 ft | 476 kts | 353° |
| 2026-04-27 11:15 | 49.26594 | 30.68661 | 24724 ft | 474 kts | 353° |
| 2026-04-27 11:15 | 49.29889 | 30.68733 | 23899 ft | 472 kts | 353° |
| 2026-04-27 11:16 | 49.33171 | 30.68804 | 22907 ft | 464 kts | 353° |
| 2026-04-27 11:16 | 49.36330 | 30.68885 | 22058 ft | 451 kts | 353° |
| 2026-04-27 11:16 | 49.39467 | 30.68953 | 21279 ft | 450 kts | 353° |
| 2026-04-27 11:16 | 49.42604 | 30.69015 | 20455 ft | 450 kts | 353° |
| 2026-04-27 11:17 | 49.45695 | 30.69078 | 19680 ft | 450 kts | 353° |
| 2026-04-27 11:17 | 49.48825 | 30.69145 | 18899 ft | 449 kts | 354° |
| 2026-04-27 11:17 | 49.51925 | 30.69217 | 18180 ft | 436 kts | 354° |
| 2026-04-27 11:17 | 49.54869 | 30.69361 | 17282 ft | 420 kts | 356° |
| 2026-04-27 11:18 | 49.57794 | 30.69891 | 16589 ft | 425 kts | 3° |
| 2026-04-27 11:18 | 49.60682 | 30.70854 | 15948 ft | 420 kts | 5° |
| 2026-04-27 11:18 | 49.63491 | 30.71846 | 15338 ft | 412 kts | 5° |
| 2026-04-27 11:18 | 49.66274 | 30.72824 | 14739 ft | 409 kts | 5° |
| 2026-04-27 11:19 | 49.69034 | 30.73787 | 14185 ft | 396 kts | 5° |
| 2026-04-27 11:19 | 49.71612 | 30.74698 | 13542 ft | 367 kts | 5° |
| 2026-04-27 11:19 | 49.74133 | 30.75561 | 12980 ft | 377 kts | 5° |
| 2026-04-27 11:19 | 49.76661 | 30.76417 | 12391 ft | 364 kts | 5° |
| 2026-04-27 11:20 | 49.79044 | 30.77236 | 11890 ft | 346 kts | 5° |
| 2026-04-27 11:20 | 49.81328 | 30.78025 | 11612 ft | 324 kts | 5° |
| 2026-04-27 11:20 | 49.83448 | 30.78761 | 11396 ft | 300 kts | 5° |
| 2026-04-27 11:20 | 49.85411 | 30.79441 | 10833 ft | 282 kts | 4° |
| 2026-04-27 11:21 | 49.87308 | 30.80085 | 10082 ft | 275 kts | 5° |
| 2026-04-27 11:21 | 49.89184 | 30.80716 | 9341 ft | 280 kts | 5° |
| 2026-04-27 11:21 | 49.91081 | 30.81357 | 9033 ft | 277 kts | 5° |
| 2026-04-27 11:21 | 49.92943 | 30.81994 | 8784 ft | 272 kts | 5° |
| 2026-04-27 11:22 | 49.94781 | 30.82623 | 8468 ft | 270 kts | 5° |
| 2026-04-27 11:22 | 49.96611 | 30.83251 | 8120 ft | 269 kts | 5° |
| 2026-04-27 11:22 | 49.98383 | 30.83866 | 7515 ft | 258 kts | 5° |
| 2026-04-27 11:22 | 50.00161 | 30.84474 | 6939 ft | 264 kts | 5° |
| 2026-04-27 11:23 | 50.01955 | 30.85090 | 6628 ft | 262 kts | 5° |
| 2026-04-27 11:23 | 50.03734 | 30.85706 | 6340 ft | 260 kts | 5° |
| 2026-04-27 11:23 | 50.05453 | 30.86299 | 6014 ft | 260 kts | 5° |
| 2026-04-27 11:23 | 50.07215 | 30.86909 | 5706 ft | 259 kts | 5° |
| 2026-04-27 11:24 | 50.08963 | 30.87516 | 5363 ft | 253 kts | 5° |
| 2026-04-27 11:24 | 50.10646 | 30.88104 | 4923 ft | 244 kts | 5° |
| 2026-04-27 11:24 | 50.12243 | 30.88664 | 4510 ft | 228 kts | 4° |
| 2026-04-27 11:24 | 50.13787 | 30.89005 | 4232 ft | 221 kts | 356° |
| 2026-04-27 11:25 | 50.15310 | 30.89139 | 3934 ft | 215 kts | 354° |
| 2026-04-27 11:25 | 50.16770 | 30.89240 | 3529 ft | 202 kts | 354° |
| 2026-04-27 11:25 | 50.18117 | 30.89337 | 3279 ft | 189 kts | 353° |
| 2026-04-27 11:25 | 50.19424 | 30.89427 | 3040 ft | 186 kts | 353° |
| 2026-04-27 11:26 | 50.20651 | 30.89521 | 2924 ft | 168 kts | 353° |
| 2026-04-27 11:26 | 50.21814 | 30.89601 | 2845 ft | 170 kts | 353° |
| 2026-04-27 11:26 | 50.22975 | 30.89685 | 2606 ft | 163 kts | 353° |
| 2026-04-27 11:26 | 50.24102 | 30.89768 | 2404 ft | 161 kts | 353° |
| 2026-04-27 11:27 | 50.25175 | 30.89850 | 2155 ft | 148 kts | 352° |
| 2026-04-27 11:27 | 50.26158 | 30.89922 | 1968 ft | 137 kts | 352° |
| 2026-04-27 11:27 | 50.27103 | 30.89990 | 1753 ft | 132 kts | 352° |
| 2026-04-27 11:27 | 50.28001 | 30.90054 | 1601 ft | 130 kts | 352° |
| 2026-04-27 11:28 | 50.28932 | 30.90119 | 1368 ft | 137 kts | 352° |
| 2026-04-27 11:28 | 50.29893 | 30.90190 | 1075 ft | 139 kts | 354° |
| 2026-04-27 11:28 | 50.30848 | 30.90249 | 815 ft | 136 kts | 353° |
| 2026-04-27 11:28 | 50.31781 | 30.90330 | 601 ft | 132 kts | 354° |
| 2026-04-27 11:29 | 50.32694 | 30.90404 | 455 ft | 127 kts | 355° |
| 2026-04-27 11:29 | 50.33481 | 30.90454 | 427 ft | 97 kts | 3° |
| 2026-04-27 11:29 | 50.34019 | 30.90494 | 415 ft | 48 kts | 2° |
| 2026-04-27 11:29 | 50.34291 | 30.90472 | 415 ft | 32 kts | 344° |
| 2026-04-27 11:30 | 50.34482 | 30.90333 | 416 ft | 26 kts | 323° |
| 2026-04-27 11:30 | 50.34501 | 30.90236 | 410 ft | 0 kts | 243° |
| 2026-04-27 11:31 | 50.34496 | 30.90229 | 411 ft | 5 kts | 225° |
| 2026-04-27 11:31 | 50.34428 | 30.90202 | 414 ft | 13 kts | 183° |
| 2026-04-27 11:31 | 50.34267 | 30.90189 | 415 ft | 26 kts | 182° |
| 2026-04-27 11:31 | 50.34089 | 30.90178 | 412 ft | 26 kts | 182° |
| 2026-04-27 11:32 | 50.33910 | 30.90166 | 417 ft | 26 kts | 184° |
| 2026-04-27 11:32 | 50.33732 | 30.90152 | 412 ft | 26 kts | 182° |
| 2026-04-27 11:32 | 50.33564 | 30.90140 | 413 ft | 20 kts | 186° |
| 2026-04-27 11:32 | 50.33498 | 30.89977 | 412 ft | 17 kts | 270° |
| 2026-04-27 11:33 | 50.33494 | 30.89857 | 410 ft | 4 kts | 237° |
| 2026-04-27 11:33 | 50.33426 | 30.89843 | 412 ft | 10 kts | 183° |
| 2026-04-27 11:33 | 50.33409 | 30.89842 | 417 ft | 0 kts | 182° |